Terminal Aerodrome Forecast
Issued by NWS Buffalo, NY

Home | Current Version | Previous Version | Text Only | Print | Product List | Glossary On
Versions: 1 2 3 4 5 6 7 8 9 10 11 12 13 14 15 16 17 18 19 20 21 22 23 24 25 26 27 28
000
FTUS41 KBUF 231739
TAFBUF
TAF
KBUF 231739Z 2318/2418 06010KT P6SM BKN011 BKN020 OVC080
     FM231900 07012KT P6SM VCSH OVC012
     FM232100 06012G18KT 6SM -RA OVC012
     FM240300 06012G18KT 1 1/2SM -SNPLRA OVC015
     FM240500 06011G18KT 1SM -SN OVC015
     FM241000 05009KT 1SM -SN OVC007
     FM241400 04008KT P6SM VCSH OVC003=

USA.gov is the U.S. government's official web portal to all federal, state and local government web resources and services.